Time;durP1;ratioP1;P1;durP2;ratioP2;P2;SDS_P1;SDS_P2;PMS_P1;PMS_P2;Temp;Humidity;BMP_temperature;BMP_pressure;BME280_temperature;BME280_humidity;BME280_pressure;Samples;Min_cycle;Max_cycle;Signal;HPM_P1;HPM_P2
2024/01/06 00:00:31;;;;;;;;;;;2.80;99.90;;;;;;5046791;28;19924;-33
2024/01/06 00:02:57;;;;;;;;;;;2.80;99.90;;;;;;5048202;28;19995;-33
2024/01/06 00:05:24;;;;;;;;;;;2.80;99.90;;;;;;5048688;28;19925;-33
2024/01/06 00:07:52;;;;;;;;;;;2.80;99.90;;;;;;5052419;28;20343;-35
2024/01/06 00:10:19;;;;;;;;;;;2.70;99.90;;;;;;5053063;28;20385;-33
2024/01/06 00:12:45;;;;;;;;;;;2.80;99.90;;;;;;5054372;28;20438;-34
2024/01/06 00:15:12;;;;;;;;;;;2.70;99.90;;;;;;5052913;28;19976;-34
2024/01/06 00:17:38;;;;;;;;;;;2.70;99.90;;;;;;5051905;28;19925;-32
2024/01/06 00:20:06;;;;;;;;;;;2.70;99.90;;;;;;5052960;28;20438;-33
2024/01/06 00:22:32;;;;;;;;;;;2.70;99.90;;;;;;5051130;28;20430;-33
2024/01/06 00:25:00;;;;;;;;;;;2.70;99.90;;;;;;5054248;28;19940;-34
2024/01/06 00:27:27;;;;;;;;;;;2.80;99.90;;;;;;5051905;28;19944;-33
2024/01/06 00:29:54;;;;;;;;;;;2.70;99.90;;;;;;5053288;28;19925;-33
2024/01/06 00:32:20;;;;;;;;;;;2.70;99.90;;;;;;5052796;28;19924;-35
2024/01/06 00:34:47;;;;;;;;;;;2.70;99.90;;;;;;5053967;28;20002;-33
2024/01/06 00:37:14;;;;;;;;;;;2.70;99.90;;;;;;5053849;28;20281;-33
2024/01/06 00:39:40;;;;;;;;;;;2.70;99.90;;;;;;5051721;28;19924;-34
2024/01/06 00:42:08;;;;;;;;;;;2.70;99.90;;;;;;5051645;28;19972;-33
2024/01/06 00:44:36;;;;;;;;;;;2.70;99.90;;;;;;5052811;28;20364;-34
2024/01/06 00:47:03;;;;;;;;;;;2.70;99.90;;;;;;5052928;28;19925;-33
2024/01/06 00:49:30;;;;;;;;;;;2.70;99.90;;;;;;5053384;28;19925;-33
2024/01/06 00:51:56;;;;;;;;;;;2.70;99.90;;;;;;5052959;28;19931;-32
2024/01/06 00:54:23;;;;;;;;;;;2.70;99.90;;;;;;5050988;28;19925;-35
2024/01/06 00:56:49;;;;;;;;;;;2.70;99.90;;;;;;5052725;28;19925;-33
2024/01/06 00:59:17;;;;;;;;;;;2.70;99.90;;;;;;5053730;28;19978;-33
2024/01/06 01:01:44;;;;;;;;;;;2.70;99.90;;;;;;5053378;28;19951;-33
2024/01/06 01:04:11;;;;;;;;;;;2.70;99.90;;;;;;5051381;28;19924;-32
2024/01/06 01:06:37;;;;;;;;;;;2.70;99.90;;;;;;5053707;28;19925;-33
2024/01/06 01:09:04;;;;;;;;;;;2.60;99.90;;;;;;5051461;28;19979;-33
2024/01/06 01:11:31;;;;;;;;;;;2.70;99.90;;;;;;5052181;28;19932;-33
2024/01/06 01:13:57;;;;;;;;;;;2.60;99.90;;;;;;5054068;28;19979;-33
2024/01/06 01:16:25;;;;;;;;;;;2.60;99.90;;;;;;5053120;28;19929;-33
2024/01/06 01:18:52;;;;;;;;;;;2.60;99.90;;;;;;5051643;28;19937;-33
2024/01/06 01:21:18;;;;;;;;;;;2.50;99.90;;;;;;5052509;28;19987;-33
2024/01/06 01:23:45;;;;;;;;;;;2.50;99.90;;;;;;5051228;28;20442;-34
2024/01/06 01:26:12;;;;;;;;;;;2.60;99.90;;;;;;5051779;28;19986;-34
2024/01/06 01:28:38;;;;;;;;;;;2.50;99.90;;;;;;5033393;28;19986;-35
2024/01/06 01:31:05;;;;;;;;;;;2.50;99.90;;;;;;5049006;28;19924;-35
2024/01/06 01:33:33;;;;;;;;;;;2.50;99.90;;;;;;5052585;28;20434;-35
2024/01/06 01:36:00;;;;;;;;;;;2.50;99.90;;;;;;5051667;28;20368;-35
2024/01/06 01:38:26;;;;;;;;;;;2.40;99.90;;;;;;5052917;28;19924;-36
2024/01/06 01:40:53;;;;;;;;;;;2.40;99.90;;;;;;5052995;28;19929;-34
2024/01/06 01:43:19;;;;;;;;;;;2.40;99.90;;;;;;5050977;28;20049;-33
2024/01/06 01:45:46;;;;;;;;;;;2.30;99.90;;;;;;5051770;28;20408;-34
2024/01/06 01:48:13;;;;;;;;;;;2.30;99.90;;;;;;5051168;28;19979;-34
2024/01/06 01:50:41;;;;;;;;;;;2.30;99.90;;;;;;5036881;28;19925;-34
2024/01/06 01:53:07;;;;;;;;;;;2.30;99.90;;;;;;5052541;28;20217;-33
2024/01/06 01:55:34;;;;;;;;;;;2.30;99.90;;;;;;5051275;28;19979;-34
2024/01/06 01:58:00;;;;;;;;;;;2.30;99.90;;;;;;5046487;28;19929;-33
2024/01/06 02:00:29;;;;;;;;;;;2.30;99.90;;;;;;5050333;28;20434;-33
2024/01/06 02:02:55;;;;;;;;;;;2.30;99.90;;;;;;5050783;28;20284;-34
2024/01/06 02:05:22;;;;;;;;;;;2.20;99.90;;;;;;5051170;28;20016;-33
2024/01/06 02:07:50;;;;;;;;;;;2.20;99.90;;;;;;5051408;28;19929;-34
2024/01/06 02:10:17;;;;;;;;;;;2.20;99.90;;;;;;5049007;28;19972;-34
2024/01/06 02:12:44;;;;;;;;;;;2.20;99.90;;;;;;5051351;28;19933;-33
2024/01/06 02:15:10;;;;;;;;;;;2.20;99.90;;;;;;5052307;28;19979;-33
2024/01/06 02:17:39;;;;;;;;;;;2.20;99.90;;;;;;5049173;28;19925;-32
2024/01/06 02:20:06;;;;;;;;;;;2.20;99.90;;;;;;5051232;28;20373;-33
2024/01/06 02:22:34;;;;;;;;;;;2.20;99.90;;;;;;5050276;28;19925;-32
2024/01/06 02:25:01;;;;;;;;;;;2.20;99.90;;;;;;5052508;28;19929;-33
2024/01/06 02:27:28;;;;;;;;;;;2.20;99.90;;;;;;5049671;28;19924;-33
2024/01/06 02:29:54;;;;;;;;;;;2.20;99.90;;;;;;5050998;28;20411;-34
2024/01/06 02:32:21;;;;;;;;;;;2.30;99.90;;;;;;5050186;28;19975;-34
2024/01/06 02:34:47;;;;;;;;;;;2.20;99.90;;;;;;5052072;28;19929;-32
2024/01/06 02:37:14;;;;;;;;;;;2.20;99.90;;;;;;5050015;28;19964;-34
2024/01/06 02:39:42;;;;;;;;;;;2.20;99.90;;;;;;5049953;28;19995;-34
2024/01/06 02:42:09;;;;;;;;;;;2.20;99.90;;;;;;5045775;28;19929;-35
2024/01/06 02:44:35;;;;;;;;;;;2.20;99.90;;;;;;5050246;28;20372;-33
2024/01/06 02:47:02;;;;;;;;;;;2.10;99.90;;;;;;5049226;28;20018;-34
2024/01/06 02:49:28;;;;;;;;;;;2.10;99.90;;;;;;5051252;28;20000;-34
2024/01/06 02:51:55;;;;;;;;;;;2.10;99.90;;;;;;5051714;28;19924;-35
2024/01/06 02:54:22;;;;;;;;;;;2.10;99.90;;;;;;5050608;28;20365;-34
2024/01/06 02:56:50;;;;;;;;;;;2.10;99.90;;;;;;5050693;28;19925;-34
2024/01/06 02:59:16;;;;;;;;;;;2.10;99.90;;;;;;5049751;28;19928;-34
2024/01/06 03:01:43;;;;;;;;;;;2.10;99.90;;;;;;5050444;28;19955;-35
2024/01/06 03:04:09;;;;;;;;;;;2.10;99.90;;;;;;5051500;28;19924;-35
2024/01/06 03:06:36;;;;;;;;;;;2.10;99.90;;;;;;5050531;28;20323;-34
2024/01/06 03:09:03;;;;;;;;;;;2.30;99.90;;;;;;5051389;28;20287;-34
2024/01/06 03:11:29;;;;;;;;;;;1.90;99.90;;;;;;5049151;28;19925;-36
2024/01/06 03:13:57;;;;;;;;;;;1.90;99.90;;;;;;5051885;28;20376;-36
2024/01/06 03:16:24;;;;;;;;;;;1.90;99.90;;;;;;5051261;28;20336;-35
2024/01/06 03:18:51;;;;;;;;;;;1.90;99.90;;;;;;5051432;28;20655;-35
2024/01/06 03:21:17;;;;;;;;;;;1.90;99.90;;;;;;5052863;28;19980;-35
2024/01/06 03:23:44;;;;;;;;;;;1.90;99.90;;;;;;5049550;28;19979;-33
2024/01/06 03:26:11;;;;;;;;;;;1.90;99.90;;;;;;5048739;28;20450;-34
2024/01/06 03:28:37;;;;;;;;;;;1.90;99.90;;;;;;5051525;28;19925;-34
2024/01/06 03:31:05;;;;;;;;;;;1.90;99.90;;;;;;5050654;28;19925;-34
2024/01/06 03:33:32;;;;;;;;;;;1.90;99.90;;;;;;5051073;28;19951;-34
2024/01/06 03:35:58;;;;;;;;;;;1.80;99.90;;;;;;5049877;28;19925;-34
2024/01/06 03:38:25;;;;;;;;;;;1.80;99.90;;;;;;5050267;28;19925;-34
2024/01/06 03:40:52;;;;;;;;;;;1.90;99.90;;;;;;5049154;28;20025;-34
2024/01/06 03:43:18;;;;;;;;;;;1.80;99.90;;;;;;5050450;28;19925;-34
2024/01/06 03:45:45;;;;;;;;;;;1.80;99.90;;;;;;5052561;28;20359;-34
2024/01/06 03:48:13;;;;;;;;;;;1.80;99.90;;;;;;5050294;28;19929;-34
2024/01/06 03:50:39;;;;;;;;;;;1.80;99.90;;;;;;5046116;28;20335;-34
2024/01/06 03:53:06;;;;;;;;;;;1.80;99.90;;;;;;5049931;28;19924;-34
2024/01/06 03:55:33;;;;;;;;;;;1.80;99.90;;;;;;5048369;28;19925;-34
2024/01/06 03:58:00;;;;;;;;;;;1.80;99.90;;;;;;5050249;28;20015;-34
2024/01/06 04:00:26;;;;;;;;;;;1.90;99.90;;;;;;5051170;28;19971;-32
2024/01/06 04:02:53;;;;;;;;;;;1.80;99.90;;;;;;5049393;28;19932;-33
2024/01/06 04:05:21;;;;;;;;;;;1.80;99.90;;;;;;5049474;28;19925;-33
2024/01/06 04:07:48;;;;;;;;;;;1.80;99.90;;;;;;5046495;28;19974;-33
2024/01/06 04:10:14;;;;;;;;;;;1.90;99.90;;;;;;5049791;28;19929;-32
2024/01/06 04:12:41;;;;;;;;;;;1.80;99.90;;;;;;5051032;28;20333;-33
2024/01/06 04:15:08;;;;;;;;;;;1.70;99.90;;;;;;5050117;28;19925;-33
2024/01/06 04:17:35;;;;;;;;;;;1.70;99.90;;;;;;5051291;28;20300;-33
2024/01/06 04:20:05;;;;;;;;;;;1.70;99.90;;;;;;5050484;28;19925;-34
2024/01/06 04:22:33;;;;;;;;;;;1.70;99.90;;;;;;5049110;28;19929;-33
2024/01/06 04:24:59;;;;;;;;;;;1.70;99.90;;;;;;5048970;28;19928;-33
2024/01/06 04:27:26;;;;;;;;;;;1.60;99.90;;;;;;5049758;28;19970;-33
2024/01/06 04:29:53;;;;;;;;;;;1.60;99.90;;;;;;5049808;28;20081;-35
2024/01/06 04:32:19;;;;;;;;;;;1.60;99.90;;;;;;5052007;28;19972;-34
2024/01/06 04:34:46;;;;;;;;;;;1.60;99.90;;;;;;5049715;28;20020;-34
2024/01/06 04:37:12;;;;;;;;;;;1.70;99.90;;;;;;5050010;28;19925;-34
2024/01/06 04:39:40;;;;;;;;;;;1.70;99.90;;;;;;5048786;28;19979;-34
2024/01/06 04:42:07;;;;;;;;;;;1.60;99.90;;;;;;5049387;28;19986;-33
2024/01/06 04:44:34;;;;;;;;;;;1.60;99.90;;;;;;5050369;28;19933;-33
2024/01/06 04:47:00;;;;;;;;;;;1.60;99.90;;;;;;5049585;28;19975;-34
2024/01/06 04:49:27;;;;;;;;;;;1.60;99.90;;;;;;5045325;28;20275;-32
2024/01/06 04:51:53;;;;;;;;;;;1.60;99.90;;;;;;5049787;28;20410;-32
2024/01/06 04:54:20;;;;;;;;;;;1.60;99.90;;;;;;5050888;28;19976;-33
2024/01/06 04:56:48;;;;;;;;;;;1.80;99.90;;;;;;5053594;28;19979;-33
2024/01/06 04:59:15;;;;;;;;;;;1.60;99.90;;;;;;5052341;28;19925;-35
2024/01/06 05:01:42;;;;;;;;;;;1.50;99.90;;;;;;5053581;28;20362;-33
2024/01/06 05:04:08;;;;;;;;;;;1.60;99.90;;;;;;5054315;28;19987;-33
2024/01/06 05:06:35;;;;;;;;;;;1.50;99.90;;;;;;5053347;28;19959;-32
2024/01/06 05:09:02;;;;;;;;;;;1.60;99.90;;;;;;5051998;28;19928;-33
2024/01/06 05:11:28;;;;;;;;;;;1.50;99.90;;;;;;5052802;28;20435;-33
2024/01/06 05:13:56;;;;;;;;;;;1.60;99.90;;;;;;5053633;28;20407;-32
2024/01/06 05:16:23;;;;;;;;;;;1.50;99.90;;;;;;5052894;28;19970;-34
2024/01/06 05:18:50;;;;;;;;;;;1.50;99.90;;;;;;5050200;28;19924;-35
2024/01/06 05:21:16;;;;;;;;;;;1.50;99.90;;;;;;5052496;28;19924;-35
2024/01/06 05:23:43;;;;;;;;;;;1.50;99.90;;;;;;5053704;28;20408;-34
2024/01/06 05:26:11;;;;;;;;;;;1.60;99.90;;;;;;5052580;28;19978;-33
2024/01/06 05:28:38;;;;;;;;;;;1.60;99.90;;;;;;5051416;28;19929;-34
2024/01/06 05:31:06;;;;;;;;;;;1.50;99.90;;;;;;5051671;28;19929;-34
2024/01/06 05:33:32;;;;;;;;;;;1.50;99.90;;;;;;5052426;28;19928;-33
2024/01/06 05:35:59;;;;;;;;;;;1.60;99.90;;;;;;5050272;28;19967;-33
2024/01/06 05:38:26;;;;;;;;;;;1.50;99.90;;;;;;5052352;28;20291;-34
2024/01/06 05:40:52;;;;;;;;;;;1.50;99.90;;;;;;5052365;28;19947;-34
2024/01/06 05:43:19;;;;;;;;;;;1.50;99.90;;;;;;5053886;28;19932;-34
2024/01/06 05:45:46;;;;;;;;;;;1.50;99.90;;;;;;5053301;28;19936;-34
2024/01/06 05:48:14;;;;;;;;;;;1.50;99.90;;;;;;5049753;28;19924;-33
2024/01/06 05:50:40;;;;;;;;;;;1.50;99.90;;;;;;5050939;28;19978;-35
2024/01/06 05:53:07;;;;;;;;;;;1.50;99.90;;;;;;5053002;28;19990;-33
2024/01/06 05:55:34;;;;;;;;;;;1.50;99.90;;;;;;5039845;28;20377;-33
2024/01/06 05:58:00;;;;;;;;;;;1.50;99.90;;;;;;5052166;28;19986;-34
2024/01/06 06:00:27;;;;;;;;;;;1.40;99.90;;;;;;5052926;28;20347;-33
2024/01/06 06:02:54;;;;;;;;;;;1.40;99.90;;;;;;5051854;28;19975;-34
2024/01/06 06:05:22;;;;;;;;;;;1.40;99.90;;;;;;5050042;28;19925;-36
2024/01/06 06:07:48;;;;;;;;;;;1.50;99.90;;;;;;5049455;28;19978;-34
2024/01/06 06:10:15;;;;;;;;;;;1.40;99.90;;;;;;5050669;28;20188;-33
2024/01/06 06:12:43;;;;;;;;;;;1.40;99.90;;;;;;5052097;28;19932;-34
2024/01/06 06:15:09;;;;;;;;;;;1.40;99.90;;;;;;5050962;28;19936;-33
2024/01/06 06:17:36;;;;;;;;;;;1.40;99.90;;;;;;5052510;28;19990;-35
2024/01/06 06:20:03;;;;;;;;;;;1.40;99.90;;;;;;5049161;28;19982;-34
2024/01/06 06:22:31;;;;;;;;;;;1.40;99.90;;;;;;5045601;28;19948;-33
2024/01/06 06:24:58;;;;;;;;;;;1.40;99.90;;;;;;5050643;28;19929;-34
2024/01/06 06:27:24;;;;;;;;;;;1.40;99.90;;;;;;5051195;28;19967;-34
2024/01/06 06:29:51;;;;;;;;;;;1.30;99.90;;;;;;5052467;28;19972;-33
2024/01/06 06:32:18;;;;;;;;;;;1.30;99.90;;;;;;5051813;28;20337;-33
2024/01/06 06:34:44;;;;;;;;;;;1.40;99.90;;;;;;5049880;28;19978;-32
2024/01/06 06:37:11;;;;;;;;;;;1.50;99.90;;;;;;5050967;28;19983;-34
2024/01/06 06:39:39;;;;;;;;;;;1.40;99.90;;;;;;5052466;28;19971;-35
2024/01/06 06:42:06;;;;;;;;;;;1.40;99.90;;;;;;5050383;28;20009;-35
2024/01/06 06:44:32;;;;;;;;;;;1.40;99.90;;;;;;5051824;28;19925;-34
2024/01/06 06:46:59;;;;;;;;;;;1.40;99.90;;;;;;5050717;28;19979;-35
2024/01/06 06:49:25;;;;;;;;;;;1.40;99.90;;;;;;5049235;28;19964;-34
2024/01/06 06:51:52;;;;;;;;;;;1.40;99.90;;;;;;5050725;28;19925;-35
2024/01/06 06:54:19;;;;;;;;;;;1.40;99.90;;;;;;5051838;28;19932;-35
2024/01/06 06:56:47;;;;;;;;;;;1.40;99.90;;;;;;5051721;28;19929;-34
2024/01/06 06:59:14;;;;;;;;;;;1.40;99.90;;;;;;5050356;28;19979;-34
2024/01/06 07:01:40;;;;;;;;;;;1.40;99.90;;;;;;5050594;28;19961;-32
2024/01/06 07:04:07;;;;;;;;;;;1.30;99.90;;;;;;5049628;28;19924;-33
2024/01/06 07:06:34;;;;;;;;;;;1.40;99.90;;;;;;5050914;28;20359;-33
2024/01/06 07:09:01;;;;;;;;;;;1.40;99.90;;;;;;5050229;28;19968;-34
2024/01/06 07:11:27;;;;;;;;;;;1.40;99.90;;;;;;5050290;28;19975;-35
2024/01/06 07:13:55;;;;;;;;;;;1.40;99.90;;;;;;5050735;28;19975;-33
2024/01/06 07:16:22;;;;;;;;;;;1.30;99.90;;;;;;5049506;28;19924;-33
2024/01/06 07:18:49;;;;;;;;;;;1.40;99.90;;;;;;5049325;28;19978;-33
2024/01/06 07:21:15;;;;;;;;;;;1.40;99.90;;;;;;5051223;28;19978;-34
2024/01/06 07:23:42;;;;;;;;;;;1.40;99.90;;;;;;5050422;28;20343;-33
2024/01/06 07:26:09;;;;;;;;;;;1.40;99.90;;;;;;5051155;28;19925;-33
2024/01/06 07:28:35;;;;;;;;;;;1.40;99.90;;;;;;5050242;28;19968;-32
2024/01/06 07:31:04;;;;;;;;;;;1.40;99.90;;;;;;5049699;28;20284;-33
2024/01/06 07:33:31;;;;;;;;;;;1.40;99.90;;;;;;5048629;28;19967;-33
2024/01/06 07:35:57;;;;;;;;;;;1.40;99.90;;;;;;5051733;28;19978;-33
2024/01/06 07:38:24;;;;;;;;;;;1.40;99.90;;;;;;5048582;28;20397;-33
2024/01/06 07:40:50;;;;;;;;;;;1.50;99.90;;;;;;5039619;28;19932;-33
2024/01/06 07:43:17;;;;;;;;;;;1.40;99.90;;;;;;5046818;28;19929;-34
2024/01/06 07:45:50;;;;;;;;;;;1.40;99.90;;;;;;5046642;28;20527;-32
2024/01/06 07:48:18;;;;;;;;;;;1.40;99.90;;;;;;5049455;28;19924;-33
2024/01/06 07:50:45;;;;;;;;;;;1.40;99.90;;;;;;5047272;28;19978;-33
2024/01/06 07:53:13;;;;;;;;;;;1.40;99.90;;;;;;5048555;28;19944;-34
2024/01/06 07:55:40;;;;;;;;;;;1.40;99.90;;;;;;5049483;28;19932;-33
2024/01/06 07:58:06;;;;;;;;;;;1.40;99.90;;;;;;5048089;28;19979;-34
2024/01/06 08:00:33;;;;;;;;;;;1.50;99.90;;;;;;5048743;28;19936;-35
2024/01/06 08:03:00;;;;;;;;;;;1.40;99.90;;;;;;5048658;28;19925;-33
2024/01/06 08:05:28;;;;;;;;;;;1.50;99.90;;;;;;5047975;28;20438;-34
2024/01/06 08:07:54;;;;;;;;;;;1.50;99.90;;;;;;5049116;28;19929;-33
2024/01/06 08:10:21;;;;;;;;;;;1.70;99.90;;;;;;5049973;28;19986;-32
2024/01/06 08:12:48;;;;;;;;;;;1.50;99.90;;;;;;5047381;28;19929;-34
2024/01/06 08:15:15;;;;;;;;;;;1.50;99.90;;;;;;5050046;28;19925;-34
2024/01/06 08:17:42;;;;;;;;;;;1.50;99.90;;;;;;5048597;28;19925;-32
2024/01/06 08:20:09;;;;;;;;;;;1.50;99.90;;;;;;5049890;28;20269;-33
2024/01/06 08:22:37;;;;;;;;;;;1.50;99.90;;;;;;5049067;28;20027;-33
2024/01/06 08:25:06;;;;;;;;;;;1.50;99.90;;;;;;5047274;28;19929;-34
2024/01/06 08:27:32;;;;;;;;;;;1.50;99.90;;;;;;5050028;28;19932;-33
2024/01/06 08:29:59;;;;;;;;;;;1.80;99.90;;;;;;5053652;28;19925;-33
2024/01/06 08:32:26;;;;;;;;;;;1.50;99.90;;;;;;5052324;28;20392;-32
2024/01/06 08:34:52;;;;;;;;;;;1.50;99.90;;;;;;5052514;28;19924;-33
2024/01/06 08:37:19;;;;;;;;;;;1.60;99.90;;;;;;5054210;28;19964;-33
2024/01/06 08:39:47;;;;;;;;;;;1.60;99.90;;;;;;5054496;28;20317;-34
2024/01/06 08:42:14;;;;;;;;;;;1.60;99.90;;;;;;5054945;28;19924;-33
2024/01/06 08:44:40;;;;;;;;;;;1.60;99.90;;;;;;5053971;28;19986;-34
2024/01/06 08:47:07;;;;;;;;;;;1.60;99.90;;;;;;5044946;28;19975;-33
2024/01/06 08:49:34;;;;;;;;;;;1.60;99.90;;;;;;5052935;28;20343;-32
2024/01/06 08:52:00;;;;;;;;;;;1.60;99.90;;;;;;5052162;28;19971;-33
2024/01/06 08:54:27;;;;;;;;;;;1.60;99.90;;;;;;5053305;28;19928;-33
2024/01/06 08:56:55;;;;;;;;;;;1.60;99.90;;;;;;5051459;28;19925;-33
2024/01/06 08:59:21;;;;;;;;;;;1.70;99.90;;;;;;5052443;28;20442;-33
2024/01/06 09:01:48;;;;;;;;;;;1.60;99.90;;;;;;5052641;28;19970;-35
2024/01/06 09:04:15;;;;;;;;;;;1.60;99.90;;;;;;5054216;28;20307;-33
2024/01/06 09:06:42;;;;;;;;;;;1.70;99.90;;;;;;5053658;28;20265;-33
2024/01/06 09:09:09;;;;;;;;;;;1.70;99.90;;;;;;5051548;28;19932;-33
2024/01/06 09:11:36;;;;;;;;;;;1.70;99.90;;;;;;5048645;28;19932;-33
2024/01/06 09:14:04;;;;;;;;;;;1.70;99.90;;;;;;5053910;28;19931;-34
2024/01/06 09:16:31;;;;;;;;;;;1.70;99.90;;;;;;5051280;28;19925;-34
2024/01/06 09:18:57;;;;;;;;;;;1.80;99.90;;;;;;5053988;28;19928;-34
2024/01/06 09:21:24;;;;;;;;;;;1.70;99.90;;;;;;5052863;28;19978;-33
2024/01/06 09:23:51;;;;;;;;;;;1.70;99.90;;;;;;5051438;28;20300;-32
2024/01/06 09:26:18;;;;;;;;;;;1.70;99.90;;;;;;5046846;28;20450;-34
2024/01/06 09:28:44;;;;;;;;;;;1.80;99.90;;;;;;5052150;28;19932;-34
2024/01/06 09:31:13;;;;;;;;;;;1.80;99.90;;;;;;5049271;28;19983;-32
2024/01/06 09:33:40;;;;;;;;;;;1.80;99.90;;;;;;5051186;28;19932;-34
2024/01/06 09:36:08;;;;;;;;;;;1.80;99.90;;;;;;5053249;28;19972;-33
2024/01/06 09:38:35;;;;;;;;;;;1.80;99.90;;;;;;5051746;28;19925;-33
2024/01/06 09:41:01;;;;;;;;;;;1.80;99.90;;;;;;5051425;28;19987;-33
2024/01/06 09:43:30;;;;;;;;;;;1.80;99.90;;;;;;5053880;28;20021;-33
2024/01/06 09:45:57;;;;;;;;;;;1.80;99.90;;;;;;5053227;28;19936;-33
2024/01/06 09:48:27;;;;;;;;;;;1.90;99.90;;;;;;5049555;28;19925;-35
2024/01/06 09:50:54;;;;;;;;;;;1.80;99.90;;;;;;5049891;28;19978;-33
2024/01/06 09:53:21;;;;;;;;;;;1.90;99.90;;;;;;5051086;28;20013;-33
2024/01/06 09:57:00;;;;;;;;;;;1.90;99.90;;;;;;4845242;22;2735815;-32
2024/01/06 09:59:27;;;;;;;;;;;1.90;99.90;;;;;;5087190;28;19928;-33
2024/01/06 10:01:54;;;;;;;;;;;1.90;99.90;;;;;;5092489;28;19928;-32
2024/01/06 10:04:20;;;;;;;;;;;1.90;99.90;;;;;;5105826;28;20290;-33
2024/01/06 10:06:47;;;;;;;;;;;1.90;99.90;;;;;;5097786;28;19981;-31
2024/01/06 10:09:13;;;;;;;;;;;1.90;99.90;;;;;;5079796;28;19992;-32
2024/01/06 10:11:41;;;;;;;;;;;1.90;99.90;;;;;;5101759;28;19940;-32
2024/01/06 10:14:09;;;;;;;;;;;1.90;99.90;;;;;;5089974;28;19986;-33
2024/01/06 10:16:36;;;;;;;;;;;1.90;99.90;;;;;;5071473;28;20420;-32
2024/01/06 10:19:03;;;;;;;;;;;1.90;99.90;;;;;;5071674;28;19924;-33
2024/01/06 10:21:31;;;;;;;;;;;1.80;99.90;;;;;;5094632;28;20337;-32
2024/01/06 10:23:57;;;;;;;;;;;1.80;99.90;;;;;;5100775;28;19947;-32
2024/01/06 10:26:24;;;;;;;;;;;1.80;99.90;;;;;;5074639;28;20409;-31
2024/01/06 10:28:51;;;;;;;;;;;1.80;99.90;;;;;;5097875;28;19970;-32
2024/01/06 10:31:19;;;;;;;;;;;1.90;99.90;;;;;;5084977;28;19924;-33
2024/01/06 10:33:46;;;;;;;;;;;1.90;99.90;;;;;;5089417;28;19974;-32
2024/01/06 10:36:14;;;;;;;;;;;1.90;99.90;;;;;;5089085;28;19936;-32
2024/01/06 10:38:41;;;;;;;;;;;1.90;99.90;;;;;;5083161;28;20024;-32
2024/01/06 10:41:08;;;;;;;;;;;1.90;99.90;;;;;;5078054;28;19958;-31
2024/01/06 10:43:37;;;;;;;;;;;1.90;99.90;;;;;;5073900;28;19925;-32
2024/01/06 10:46:04;;;;;;;;;;;1.90;99.90;;;;;;5082604;28;20336;-32
2024/01/06 10:48:33;;;;;;;;;;;2.00;99.90;;;;;;5092977;28;20302;-33
2024/01/06 10:50:59;;;;;;;;;;;2.00;99.90;;;;;;5086870;28;20279;-32
2024/01/06 10:53:26;;;;;;;;;;;2.00;99.90;;;;;;5077749;28;19924;-32
2024/01/06 10:55:53;;;;;;;;;;;1.90;99.90;;;;;;5085628;28;19924;-32
2024/01/06 10:58:19;;;;;;;;;;;2.10;99.90;;;;;;5085315;28;19963;-33
2024/01/06 11:00:47;;;;;;;;;;;1.90;99.90;;;;;;5076621;28;19985;-32
2024/01/06 11:03:14;;;;;;;;;;;1.90;99.90;;;;;;5090712;28;20322;-34
2024/01/06 11:05:42;;;;;;;;;;;2.00;99.90;;;;;;5090886;28;20349;-34
2024/01/06 11:08:10;;;;;;;;;;;1.90;99.90;;;;;;5060833;28;19929;-33
2024/01/06 11:10:37;;;;;;;;;;;1.90;99.90;;;;;;5082706;28;20299;-32
2024/01/06 11:13:07;;;;;;;;;;;1.90;99.90;;;;;;5074172;28;19924;-34
2024/01/06 11:15:40;;;;;;;;;;;1.90;99.90;;;;;;5063041;28;19955;-34
2024/01/06 11:18:07;;;;;;;;;;;1.90;99.90;;;;;;5064090;28;19978;-33
2024/01/06 11:20:33;;;;;;;;;;;1.90;99.90;;;;;;5061930;28;19999;-32
2024/01/06 11:25:55;;;;;;;;;;;1.90;99.90;;;;;;5123971;27;20189;-32
2024/01/06 11:28:22;;;;;;;;;;;2.00;99.90;;;;;;5124264;27;20295;-32
2024/01/06 11:30:50;;;;;;;;;;;2.00;99.90;;;;;;5117396;27;19979;-34
2024/01/06 11:33:16;;;;;;;;;;;2.00;99.90;;;;;;5122634;27;20360;-32
2024/01/06 11:35:43;;;;;;;;;;;2.00;99.90;;;;;;5123311;27;19931;-32
2024/01/06 11:38:12;;;;;;;;;;;2.00;99.90;;;;;;5123861;27;20341;-32
2024/01/06 11:40:39;;;;;;;;;;;2.10;99.90;;;;;;5116090;27;19931;-33
2024/01/06 11:43:07;;;;;;;;;;;2.10;99.90;;;;;;5119991;27;19928;-33
2024/01/06 11:45:33;;;;;;;;;;;2.10;99.90;;;;;;5113111;27;19970;-33
2024/01/06 11:48:02;;;;;;;;;;;2.10;99.90;;;;;;5121708;27;20354;-35
2024/01/06 11:50:28;;;;;;;;;;;2.00;99.90;;;;;;5122737;27;20322;-32
2024/01/06 11:52:55;;;;;;;;;;;2.00;99.90;;;;;;5123259;27;20027;-33
2024/01/06 11:55:22;;;;;;;;;;;2.00;99.90;;;;;;5121955;28;20001;-34
2024/01/06 11:57:49;;;;;;;;;;;1.90;99.90;;;;;;5121595;27;20388;-33
2024/01/06 12:00:18;;;;;;;;;;;2.00;99.90;;;;;;5115046;27;19931;-33
2024/01/06 12:02:44;;;;;;;;;;;1.90;99.90;;;;;;5119209;27;19966;-33
2024/01/06 12:05:15;;;;;;;;;;;1.90;99.90;;;;;;5115013;27;19988;-33
2024/01/06 12:07:42;;;;;;;;;;;2.00;99.90;;;;;;5123979;27;20382;-34
2024/01/06 12:10:11;;;;;;;;;;;2.00;99.90;;;;;;5119209;28;19923;-33
2024/01/06 12:12:38;;;;;;;;;;;2.00;99.90;;;;;;5123912;27;19927;-33
2024/01/06 12:15:05;;;;;;;;;;;2.00;99.90;;;;;;5146061;27;19928;-33
2024/01/06 12:17:33;;;;;;;;;;;2.10;99.90;;;;;;5120194;27;20369;-32
2024/01/06 12:20:00;;;;;;;;;;;2.10;99.90;;;;;;5124142;27;19931;-34
2024/01/06 12:22:26;;;;;;;;;;;2.10;99.90;;;;;;5150080;27;20359;-33
2024/01/06 12:24:53;;;;;;;;;;;2.10;99.90;;;;;;5122808;27;19924;-33
2024/01/06 12:27:21;;;;;;;;;;;2.10;99.90;;;;;;5101934;28;20001;-34
2024/01/06 12:29:48;;;;;;;;;;;2.10;99.90;;;;;;5118208;27;19928;-35
2024/01/06 12:32:14;;;;;;;;;;;2.10;99.90;;;;;;5113800;27;19924;-33
2024/01/06 12:34:42;;;;;;;;;;;2.10;99.90;;;;;;5104089;28;19963;-33
2024/01/06 12:37:09;;;;;;;;;;;2.10;99.90;;;;;;5089500;28;19923;-33
2024/01/06 12:39:35;;;;;;;;;;;2.10;99.90;;;;;;5089424;28;19931;-33
2024/01/06 12:42:02;;;;;;;;;;;2.00;99.90;;;;;;5095489;28;20375;-34
2024/01/06 12:44:29;;;;;;;;;;;2.00;99.90;;;;;;5093686;28;19981;-33
2024/01/06 12:46:55;;;;;;;;;;;2.00;99.90;;;;;;5080151;28;19932;-33
2024/01/06 12:49:22;;;;;;;;;;;2.00;99.90;;;;;;5086306;28;19923;-33
2024/01/06 12:51:50;;;;;;;;;;;2.00;99.90;;;;;;5108252;28;20302;-33
2024/01/06 12:54:17;;;;;;;;;;;1.90;99.90;;;;;;5085061;28;20363;-33
2024/01/06 12:56:43;;;;;;;;;;;1.90;99.90;;;;;;5123996;27;20012;-33
2024/01/06 12:59:11;;;;;;;;;;;1.90;99.90;;;;;;5088691;28;19924;-34
2024/01/06 13:01:37;;;;;;;;;;;2.00;99.90;;;;;;5089441;28;20279;-33
2024/01/06 13:04:04;;;;;;;;;;;2.00;99.90;;;;;;5081197;28;19993;-33
2024/01/06 13:06:31;;;;;;;;;;;2.00;99.90;;;;;;5114525;27;19924;-33
2024/01/06 13:08:59;;;;;;;;;;;2.00;99.90;;;;;;5110137;27;19932;-33
2024/01/06 13:11:25;;;;;;;;;;;1.90;99.90;;;;;;5090314;28;19940;-33
2024/01/06 13:13:52;;;;;;;;;;;1.90;99.90;;;;;;5081203;28;20337;-33
2024/01/06 13:16:19;;;;;;;;;;;2.00;99.90;;;;;;5088382;28;19924;-34
2024/01/06 13:18:44;;;;;;;;;;;1.90;99.90;;;;;;5085140;28;19977;-32
2024/01/06 13:21:11;;;;;;;;;;;1.90;99.90;;;;;;5095472;27;19923;-33
2024/01/06 13:23:37;;;;;;;;;;;2.00;99.90;;;;;;5081630;28;19963;-33
2024/01/06 13:26:05;;;;;;;;;;;1.90;99.90;;;;;;5097303;27;19986;-34
2024/01/06 13:28:32;;;;;;;;;;;1.90;99.90;;;;;;5089672;28;19927;-35
2024/01/06 13:30:59;;;;;;;;;;;1.90;99.90;;;;;;5108188;28;20333;-32
2024/01/06 13:33:25;;;;;;;;;;;1.90;99.90;;;;;;5088789;28;20391;-34
2024/01/06 13:35:52;;;;;;;;;;;1.90;99.90;;;;;;5085862;28;19971;-33
2024/01/06 13:38:19;;;;;;;;;;;1.90;99.90;;;;;;5090660;28;19969;-33
2024/01/06 13:40:45;;;;;;;;;;;1.90;99.90;;;;;;5097972;27;19968;-33
2024/01/06 13:43:15;;;;;;;;;;;1.90;99.90;;;;;;5093188;27;20021;-33
2024/01/06 13:45:43;;;;;;;;;;;1.90;99.90;;;;;;5094820;28;20021;-34
2024/01/06 13:48:10;;;;;;;;;;;1.90;99.90;;;;;;5079259;28;19934;-33
2024/01/06 13:50:36;;;;;;;;;;;1.80;99.90;;;;;;5111333;28;20064;-33
2024/01/06 13:53:03;;;;;;;;;;;1.80;99.90;;;;;;5082413;28;19984;-34
2024/01/06 13:55:30;;;;;;;;;;;1.80;99.90;;;;;;5093432;28;19931;-34
2024/01/06 13:57:56;;;;;;;;;;;1.80;99.90;;;;;;5087936;28;19984;-34
2024/01/06 14:00:25;;;;;;;;;;;2.00;99.90;;;;;;5096499;28;19979;-33
2024/01/06 14:02:53;;;;;;;;;;;1.90;99.90;;;;;;5094710;28;20363;-33
2024/01/06 14:05:20;;;;;;;;;;;2.00;99.90;;;;;;5094619;28;19932;-33
2024/01/06 14:07:49;;;;;;;;;;;1.90;99.90;;;;;;5091369;28;19928;-33
2024/01/06 14:10:16;;;;;;;;;;;1.80;99.90;;;;;;5094558;28;19924;-34
2024/01/06 14:12:42;;;;;;;;;;;1.90;99.90;;;;;;5099391;28;19932;-34
2024/01/06 14:15:09;;;;;;;;;;;1.80;99.90;;;;;;5096804;28;19976;-33
2024/01/06 14:17:38;;;;;;;;;;;1.80;99.90;;;;;;5095467;27;19927;-33
2024/01/06 14:20:05;;;;;;;;;;;1.80;99.90;;;;;;5091558;28;20358;-33
2024/01/06 14:22:32;;;;;;;;;;;1.90;99.90;;;;;;5102862;28;20276;-33
2024/01/06 14:24:58;;;;;;;;;;;1.90;99.90;;;;;;5102154;28;19923;-33
2024/01/06 14:27:25;;;;;;;;;;;1.80;99.90;;;;;;5103159;28;20072;-35
2024/01/06 14:29:55;;;;;;;;;;;1.80;99.90;;;;;;5107881;28;20026;-33
2024/01/06 14:32:22;;;;;;;;;;;1.80;99.90;;;;;;5107484;28;20350;-33